North Avondale, Colorado
Current Conditions -  °F | °C
As of 1:53 PM on Sunday 23 Nov 2014 (Local Time) from KPUB Reporting Station
Overcast Overcast  
Wind Chill: 31°   Ceiling: 4100
Heat Index: 38°   Visibility: 10mi
Dew Point: 29°   Wind: 9mph
Humidity: 70%   Direction: 230°SW
Pressure: 29.79"   Gusts: NA
Location:  38.0104°N, 104.392°W
Report Text: KPUB 232053Z 23008KT 10SM FEW035 OVC041 03/M02 A2979 RMK AO2 SLP080 T00331017 56007
Loading
Personal Weather Stations






























Interactive Weather Map New forecast layout! Learn more

10-Day Weather Forecast

Advertisements
Track Severe Weather on mobile